Time;durP1;ratioP1;P1;durP2;ratioP2;P2;SDS_P1;SDS_P2;PMS_P1;PMS_P2;Temp;Humidity;BMP_temperature;BMP_pressure;BME280_temperature;BME280_humidity;BME280_pressure;Samples;Min_cycle;Max_cycle;Signal;HPM_P1;HPM_P2
2023/01/28 00:01:58;;;;;;;9.40;5.47;;;;;;;2.36;79.34;102824.06;5042874;28;20072;-78
2023/01/28 00:04:23;;;;;;;9.53;5.60;;;;;;;2.36;79.23;102824.06;5021218;28;20034;-77
2023/01/28 00:06:48;;;;;;;10.53;5.80;;;;;;;2.37;78.81;102830.94;5028416;28;20021;-77
2023/01/28 00:09:14;;;;;;;9.80;5.70;;;;;;;2.33;78.31;102831.63;5031565;28;20032;-78
2023/01/28 00:11:39;;;;;;;10.93;5.50;;;;;;;2.33;78.11;102829.06;5028335;28;20079;-77
2023/01/28 00:14:05;;;;;;;10.00;5.70;;;;;;;2.32;78.13;102833.31;5032408;28;20026;-77
2023/01/28 00:16:30;;;;;;;9.83;5.37;;;;;;;2.32;77.88;102835.00;5026535;28;20127;-77
2023/01/28 00:18:56;;;;;;;8.90;5.30;;;;;;;2.30;78.43;102836.63;5024517;28;20454;-77
2023/01/28 00:21:21;;;;;;;10.20;6.00;;;;;;;2.27;78.52;102838.25;5020882;28;20032;-77
2023/01/28 00:23:51;;;;;;;9.57;5.57;;;;;;;2.25;78.58;102839.03;5025778;28;20468;-77
2023/01/28 00:26:17;;;;;;;10.57;5.97;;;;;;;2.23;78.78;102833.78;5024219;28;20025;-77
2023/01/28 00:28:42;;;;;;;10.63;5.67;;;;;;;2.21;78.53;102832.88;5017283;28;20038;-77
2023/01/28 00:31:11;;;;;;;9.63;5.50;;;;;;;2.17;78.40;102833.56;5014643;28;20076;-77
2023/01/28 00:33:37;;;;;;;9.90;5.67;;;;;;;2.17;78.63;102838.69;5030098;28;20029;-77
2023/01/28 00:36:03;;;;;;;12.13;6.43;;;;;;;2.16;78.70;102842.09;5028936;28;20025;-77
2023/01/28 00:38:28;;;;;;;9.40;5.63;;;;;;;2.13;78.71;102842.81;5022769;28;20057;-77
2023/01/28 00:40:54;;;;;;;11.27;6.10;;;;;;;2.12;78.65;102842.75;5012773;28;20515;-77
2023/01/28 00:43:20;;;;;;;11.17;6.20;;;;;;;2.11;78.70;102838.44;5030393;28;20075;-77
2023/01/28 00:45:45;;;;;;;9.97;6.03;;;;;;;2.11;78.44;102843.56;5028075;28;20689;-77
2023/01/28 00:48:10;;;;;;;11.00;6.43;;;;;;;2.09;78.49;102846.09;5017291;28;20100;-77
2023/01/28 00:50:36;;;;;;;11.67;6.50;;;;;;;2.09;78.73;102850.34;5020427;28;20018;-77
2023/01/28 00:53:01;;;;;;;11.50;6.57;;;;;;;2.06;78.79;102850.19;5021145;28;20055;-77
2023/01/28 00:55:27;;;;;;;12.83;6.93;;;;;;;2.06;78.72;102848.53;5026673;28;20032;-77
2023/01/28 00:57:53;;;;;;;12.10;6.90;;;;;;;2.05;78.40;102853.59;5015979;28;20526;-77
2023/01/28 01:00:20;;;;;;;12.37;6.70;;;;;;;2.02;78.53;102853.47;5031369;28;20036;-77
2023/01/28 01:02:46;;;;;;;11.93;6.50;;;;;;;1.99;78.55;102858.47;5020434;28;20032;-77
2023/01/28 01:05:11;;;;;;;12.47;7.03;;;;;;;1.93;77.97;102859.94;5028681;28;20030;-77
2023/01/28 01:07:42;;;;;;;11.20;6.33;;;;;;;1.92;77.62;102849.63;5029278;28;20032;-77
2023/01/28 01:10:15;;;;;;;10.13;5.78;;;;;;;1.93;77.40;102857.38;5027078;28;20112;-78
2023/01/28 01:12:40;;;;;;;9.43;5.23;;;;;;;1.95;77.58;102848.06;5025600;28;20044;-77
2023/01/28 01:15:09;;;;;;;10.03;5.80;;;;;;;2.00;77.58;102847.38;5027050;28;20025;-77
2023/01/28 01:17:36;;;;;;;10.63;5.67;;;;;;;2.02;77.31;102845.78;5029277;28;20036;-77
2023/01/28 01:20:04;;;;;;;10.57;5.67;;;;;;;2.07;77.44;102851.94;5021688;28;20491;-77
2023/01/28 01:22:35;;;;;;;10.03;5.60;;;;;;;2.08;77.65;102854.59;5023205;28;20033;-78
2023/01/28 01:25:02;;;;;;;10.03;5.27;;;;;;;2.09;78.05;102850.34;5014360;28;20131;-77
2023/01/28 01:27:28;;;;;;;10.17;5.67;;;;;;;2.07;78.14;102841.69;5028515;28;20364;-77
2023/01/28 01:29:53;;;;;;;10.10;5.30;;;;;;;2.08;78.33;102849.47;5021957;28;20040;-77
2023/01/28 01:32:19;;;;;;;10.30;5.67;;;;;;;2.09;78.17;102850.34;5020812;28;20025;-77
2023/01/28 01:34:44;;;;;;;10.27;5.63;;;;;;;2.08;78.27;102843.44;5022115;28;20021;-77
2023/01/28 01:37:10;;;;;;;10.83;6.13;;;;;;;2.06;78.73;102842.50;5029053;28;20021;-77
2023/01/28 01:39:35;;;;;;;11.07;5.97;;;;;;;2.07;78.45;102844.25;5028412;28;20030;-77
2023/01/28 01:42:01;;;;;;;11.50;5.70;;;;;;;2.08;78.22;102854.59;5028090;28;20139;-77
2023/01/28 01:44:51;;;;;;;10.73;5.53;;;;;;;2.09;78.29;102851.22;5023991;28;20438;-77
2023/01/28 01:47:17;;;;;;;10.57;5.97;;;;;;;2.10;77.89;102844.38;5029146;28;20013;-78
2023/01/28 01:49:43;;;;;;;10.57;5.83;;;;;;;2.10;78.02;102854.66;5029774;28;20116;-78
2023/01/28 01:52:19;;;;;;;12.27;6.60;;;;;;;2.09;77.51;102851.22;5026060;28;20081;-78
2023/01/28 01:54:49;;;;;;;12.67;6.67;;;;;;;2.07;77.25;102851.94;5027336;28;20029;-78
2023/01/28 01:57:19;;;;;;;12.50;6.67;;;;;;;2.05;77.27;102859.59;5028174;28;20072;-77
2023/01/28 01:59:44;;;;;;;11.97;6.47;;;;;;;2.04;77.25;102856.97;5030487;28;20532;-77
2023/01/28 02:02:11;;;;;;;11.50;6.30;;;;;;;2.02;76.68;102858.59;5027522;28;20112;-77
2023/01/28 02:04:39;;;;;;;11.20;6.17;;;;;;;2.03;76.77;102861.22;5023663;28;20412;-77
2023/01/28 02:07:07;;;;;;;12.37;6.70;;;;;;;2.04;76.96;102855.28;5019250;28;20026;-77
2023/01/28 02:09:37;;;;;;;11.30;6.43;;;;;;;2.04;77.40;102856.97;5011274;28;20372;-78
2023/01/28 02:12:10;;;;;;;10.60;6.10;;;;;;;2.03;77.62;102852.66;5024500;28;20033;-77
2023/01/28 02:14:41;;;;;;;12.00;6.50;;;;;;;2.03;77.17;102865.50;5029310;28;20079;-77
2023/01/28 02:17:06;;;;;;;11.50;6.43;;;;;;;2.03;77.08;102865.50;5026318;28;20655;-77
2023/01/28 02:19:41;;;;;;;10.90;6.20;;;;;;;2.04;76.82;102862.13;5018255;28;20072;-77
2023/01/28 02:22:15;;;;;;;10.87;5.87;;;;;;;2.02;76.64;102869.72;5026084;28;20034;-77
2023/01/28 02:24:52;;;;;;;11.40;6.07;;;;;;;2.02;76.48;102864.59;5024510;28;20041;-77
2023/01/28 02:27:21;;;;;;;10.93;6.00;;;;;;;2.03;76.22;102865.50;5025403;28;20040;-77
2023/01/28 02:29:54;;;;;;;11.67;6.57;;;;;;;2.02;76.46;102859.47;5022419;28;20038;-77
2023/01/28 02:32:26;;;;;;;11.27;6.17;;;;;;;2.00;76.27;102852.53;5027159;28;20021;-78
2023/01/28 02:35:09;;;;;;;11.33;6.30;;;;;;;1.98;76.50;102852.44;5023384;28;20025;-77
2023/01/28 02:37:42;;;;;;;10.80;5.97;;;;;;;1.96;76.92;102854.97;5022988;28;20526;-77
2023/01/28 02:40:12;;;;;;;10.40;5.67;;;;;;;1.95;76.42;102855.75;5031120;28;20033;-77
2023/01/28 02:42:40;;;;;;;10.13;5.87;;;;;;;1.92;76.56;102853.06;5024234;28;20044;-77
2023/01/28 02:47:56;;;;;;;10.67;6.40;;;;;;;1.91;77.07;102855.56;5032280;28;20116;-77
2023/01/28 02:48:12;;;;;;;11.33;5.63;;;;;;;1.87;76.84;102854.56;5017750;28;20499;-78
2023/01/28 02:51:01;;;;;;;10.50;5.63;;;;;;;1.85;77.26;102855.31;5030883;28;20026;-78
2023/01/28 02:53:43;;;;;;;9.80;5.47;;;;;;;1.85;76.63;102858.75;5019706;28;20435;-78
2023/01/28 02:56:46;;;;;;;9.70;5.75;;;;;;;1.88;76.79;102861.44;5030777;28;20029;-77
2023/01/28 02:59:35;;;;;;;10.13;5.50;;;;;;;1.89;76.55;102858.06;5021624;28;20035;-77
2023/01/28 03:02:15;;;;;;;9.57;5.43;;;;;;;1.91;75.97;102856.44;5031166;28;20051;-77
2023/01/28 03:04:56;;;;;;;9.07;5.13;;;;;;;1.92;76.28;102859.91;5021141;28;20033;-77
2023/01/28 03:07:25;;;;;;;9.43;5.35;;;;;;;1.91;76.37;102864.13;5032604;28;20033;-77
2023/01/28 03:09:52;;;;;;;10.23;5.07;;;;;;;1.91;75.97;102864.13;5030308;28;20032;-77
2023/01/28 03:38:17;;;;;;;10.13;5.27;;;;;;;1.83;77.70;102868.09;5017487;28;20095;-77
2023/01/28 03:41:10;;;;;;;9.93;5.13;;;;;;;1.82;77.92;102868.91;5023705;28;20040;-78
2023/01/28 03:43:35;;;;;;;8.93;4.90;;;;;;;1.82;77.96;102866.31;5011623;28;20073;-77
2023/01/28 03:46:02;;;;;;;9.60;5.20;;;;;;;1.82;77.71;102867.19;5027471;28;20046;-78
2023/01/28 03:48:28;;;;;;;8.20;4.70;;;;;;;1.83;77.58;102868.09;5030646;28;20396;-78
2023/01/28 03:51:00;;;;;;;8.37;4.73;;;;;;;1.82;77.99;102866.31;5039558;28;20033;-77
2023/01/28 03:53:27;;;;;;;8.30;4.83;;;;;;;1.82;78.04;102859.50;5016099;28;20057;-78
2023/01/28 03:55:53;;;;;;;8.03;5.00;;;;;;;1.83;78.17;102865.50;5026693;28;20064;-77
2023/01/28 03:58:20;;;;;;;7.60;4.53;;;;;;;1.85;78.17;102866.47;5030678;28;20025;-77
2023/01/28 04:00:46;;;;;;;8.97;5.07;;;;;;;1.84;78.09;102868.94;5029051;28;20038;-77
2023/01/28 04:03:16;;;;;;;9.50;5.13;;;;;;;1.82;78.29;102874.88;5024931;28;20452;-77
2023/01/28 04:05:57;;;;;;;7.70;4.67;;;;;;;1.79;78.61;102872.19;5028739;28;20052;-77
2023/01/28 04:08:22;;;;;;;7.70;4.53;;;;;;;1.76;78.72;102881.44;5031490;28;20052;-77
2023/01/28 04:10:48;;;;;;;8.47;5.17;;;;;;;1.77;78.89;102886.66;5029001;28;20460;-77
2023/01/28 04:13:13;;;;;;;10.37;5.43;;;;;;;1.78;78.73;102887.53;5030760;28;20515;-77
2023/01/28 04:15:39;;;;;;;9.87;5.63;;;;;;;1.75;78.79;102884.81;5028780;28;20033;-77
2023/01/28 04:18:04;;;;;;;10.07;5.90;;;;;;;1.72;78.49;102885.56;5029540;28;20547;-78
2023/01/28 04:20:30;;;;;;;8.37;5.03;;;;;;;1.71;79.13;102886.38;5030965;28;20030;-77
2023/01/28 04:22:55;;;;;;;9.20;5.07;;;;;;;1.73;79.23;102891.56;5022769;28;20083;-77
2023/01/28 04:25:20;;;;;;;9.70;5.47;;;;;;;1.72;79.17;102900.06;5024934;28;20089;-77
2023/01/28 04:27:45;;;;;;;11.27;5.63;;;;;;;1.73;79.40;102886.44;5017875;28;20484;-77
2023/01/28 04:30:11;;;;;;;9.07;5.43;;;;;;;1.72;79.43;102889.81;5014846;28;20032;-78
2023/01/28 04:32:37;;;;;;;8.33;5.00;;;;;;;1.71;79.46;102888.09;5028546;28;20036;-78
2023/01/28 04:35:02;;;;;;;9.93;5.10;;;;;;;1.70;79.38;102886.31;5023529;28;20034;-77
2023/01/28 04:37:27;;;;;;;9.80;5.67;;;;;;;1.69;79.68;102890.56;5024368;28;20040;-77
2023/01/28 04:39:53;;;;;;;9.93;5.50;;;;;;;1.69;79.68;102892.25;5029789;28;20029;-77
2023/01/28 04:42:18;;;;;;;8.80;4.87;;;;;;;1.66;79.80;102881.06;5019133;28;20029;-77
2023/01/28 04:44:43;;;;;;;9.57;5.40;;;;;;;1.67;80.18;102882.81;5030887;28;20037;-77
2023/01/28 04:47:08;;;;;;;9.57;5.23;;;;;;;1.67;80.11;102885.38;5020155;28;20021;-77
2023/01/28 04:49:34;;;;;;;11.27;6.43;;;;;;;1.68;79.90;102886.25;5027191;28;20045;-77
2023/01/28 04:51:59;;;;;;;10.67;6.07;;;;;;;1.67;80.19;102887.03;5029946;28;20157;-78
2023/01/28 04:54:24;;;;;;;9.60;5.47;;;;;;;1.64;80.43;102885.22;5026504;28;20033;-77
2023/01/28 04:56:49;;;;;;;10.47;5.70;;;;;;;1.66;80.00;102895.56;5029771;28;20032;-77
2023/01/28 04:59:15;;;;;;;12.13;6.07;;;;;;;1.65;79.93;102893.78;5024274;28;20030;-77
2023/01/28 05:01:40;;;;;;;10.27;5.70;;;;;;;1.63;79.83;102896.31;5029527;28;20484;-77
2023/01/28 05:04:05;;;;;;;11.70;6.13;;;;;;;1.62;80.00;102899.69;5022562;28;20040;-78
2023/01/28 05:06:31;;;;;;;10.13;5.73;;;;;;;1.62;80.20;102901.38;5029806;28;20083;-77
2023/01/28 05:08:57;;;;;;;9.97;5.53;;;;;;;1.62;79.90;102904.81;5027996;28;20029;-77
2023/01/28 05:11:23;;;;;;;9.87;5.30;;;;;;;1.63;79.71;102896.31;5026244;28;20534;-77
2023/01/28 05:13:48;;;;;;;10.70;5.60;;;;;;;1.64;79.46;102894.59;5023000;28;20474;-77
2023/01/28 05:16:13;;;;;;;9.70;5.13;;;;;;;1.62;79.02;102898.81;5029547;28;20492;-77
2023/01/28 05:18:39;;;;;;;9.17;5.50;;;;;;;1.60;78.10;102898.72;5030877;28;20131;-78
2023/01/28 05:21:04;;;;;;;10.37;5.47;;;;;;;1.59;77.57;102902.09;5029001;28;20072;-77
2023/01/28 05:23:29;;;;;;;8.70;5.00;;;;;;;1.57;77.57;102901.16;5024440;28;20075;-77
2023/01/28 05:25:55;;;;;;;9.80;5.20;;;;;;;1.55;78.01;102907.91;5022289;28;20108;-77
2023/01/28 05:28:20;;;;;;;8.53;5.27;;;;;;;1.55;78.47;102905.34;5028650;28;20025;-77
2023/01/28 05:30:45;;;;;;;10.57;5.47;;;;;;;1.53;78.76;102899.28;5025775;28;20469;-77
2023/01/28 05:33:11;;;;;;;9.17;5.40;;;;;;;1.52;79.02;102898.38;5019718;28;20031;-78
2023/01/28 05:35:36;;;;;;;8.87;5.27;;;;;;;1.53;79.14;102881.31;5018789;28;20361;-78
2023/01/28 05:38:02;;;;;;;8.80;5.13;;;;;;;1.54;78.87;102880.47;5021339;28;20104;-77
2023/01/28 05:40:28;;;;;;;9.73;5.20;;;;;;;1.54;78.81;102888.19;5027936;28;20104;-77
2023/01/28 05:42:53;;;;;;;9.57;5.03;;;;;;;1.52;78.92;102877.88;5016847;28;20169;-77
2023/01/28 05:45:18;;;;;;;8.33;5.13;;;;;;;1.52;78.46;102885.56;5020619;28;20052;-77
2023/01/28 05:47:44;;;;;;;8.77;4.57;;;;;;;1.52;78.18;102884.69;5022053;28;20041;-77
2023/01/28 05:50:12;;;;;;;8.57;4.83;;;;;;;1.50;78.16;102889.75;5028022;28;20780;-77
2023/01/28 05:52:38;;;;;;;8.43;4.77;;;;;;;1.49;77.12;102894.81;5020979;28;20060;-77
2023/01/28 05:55:03;;;;;;;8.53;5.10;;;;;;;1.45;75.78;102906.59;5028803;28;20029;-77
2023/01/28 05:57:29;;;;;;;9.23;5.30;;;;;;;1.43;76.07;102892.84;5027386;28;20033;-77
2023/01/28 05:59:54;;;;;;;9.03;4.90;;;;;;;1.39;75.04;102895.19;5019447;28;20053;-77
2023/01/28 06:02:20;;;;;;;9.30;5.27;;;;;;;1.39;75.86;102900.31;5027384;28;20025;-77
2023/01/28 06:04:45;;;;;;;9.13;5.17;;;;;;;1.33;74.66;102909.50;5023473;28;20025;-77
2023/01/28 06:07:12;;;;;;;8.70;5.10;;;;;;;1.33;75.32;102906.94;5030122;28;20376;-77
2023/01/28 06:09:37;;;;;;;9.20;5.07;;;;;;;1.33;75.78;102906.03;5021851;28;20025;-77
2023/01/28 06:12:03;;;;;;;9.53;5.63;;;;;;;1.32;75.55;102905.19;5017680;28;20512;-77
2023/01/28 06:14:28;;;;;;;9.83;5.40;;;;;;;1.30;75.55;102904.22;5016703;28;20029;-77
2023/01/28 06:16:53;;;;;;;9.23;5.20;;;;;;;1.30;76.09;102911.94;5029973;28;20377;-77
2023/01/28 06:19:19;;;;;;;10.20;5.30;;;;;;;1.29;75.89;102910.16;5019201;28;20072;-77
2023/01/28 06:21:44;;;;;;;8.43;4.97;;;;;;;1.26;76.37;102911.72;5021730;28;20056;-78
2023/01/28 06:24:09;;;;;;;8.43;4.97;;;;;;;1.25;76.57;102904.84;5019006;28;20029;-77
2023/01/28 06:26:35;;;;;;;10.47;5.70;;;;;;;1.26;76.68;102910.03;5028921;28;20040;-77
2023/01/28 06:29:00;;;;;;;9.43;5.40;;;;;;;1.24;76.41;102916.75;5025561;28;20033;-77
2023/01/28 06:31:25;;;;;;;9.13;5.10;;;;;;;1.25;76.55;102907.41;5016592;28;20040;-77
2023/01/28 06:33:51;;;;;;;9.47;5.27;;;;;;;1.24;76.57;102916.75;5021790;28;20040;-77
2023/01/28 06:36:16;;;;;;;9.27;4.90;;;;;;;1.24;76.15;102914.19;5018699;28;20480;-77
2023/01/28 06:38:41;;;;;;;10.17;5.53;;;;;;;1.23;75.99;102909.88;5027011;28;20042;-77
2023/01/28 06:41:06;;;;;;;9.37;5.13;;;;;;;1.23;75.91;102914.13;5019843;28;20033;-77
2023/01/28 06:43:32;;;;;;;10.27;5.53;;;;;;;1.20;75.16;102914.84;5025886;28;20033;-77
2023/01/28 06:45:57;;;;;;;10.17;5.10;;;;;;;1.21;75.25;102922.63;5024122;28;20428;-77
2023/01/28 06:48:24;;;;;;;9.27;5.27;;;;;;;1.20;75.37;102919.97;5019429;28;20033;-77
2023/01/28 06:50:49;;;;;;;10.03;5.70;;;;;;;1.19;75.25;102916.56;5025430;28;20033;-77
2023/01/28 06:53:15;;;;;;;8.90;5.37;;;;;;;1.19;74.99;102920.81;5025134;28;20140;-77
2023/01/28 06:55:40;;;;;;;9.00;5.50;;;;;;;1.20;75.13;102926.00;5021249;28;20044;-77
2023/01/28 06:58:06;;;;;;;10.20;5.50;;;;;;;1.21;75.39;102922.63;5026050;28;20033;-77
2023/01/28 07:00:31;;;;;;;8.97;5.20;;;;;;;1.24;75.50;102921.03;5023480;28;20091;-77
2023/01/28 07:02:56;;;;;;;9.03;5.10;;;;;;;1.24;75.22;102921.88;5023478;28;20056;-78
2023/01/28 07:05:22;;;;;;;9.63;5.67;;;;;;;1.27;75.36;102921.16;5012396;28;20030;-78
2023/01/28 07:07:47;;;;;;;10.17;5.50;;;;;;;1.27;75.06;102927.16;5028837;28;20514;-77
2023/01/28 07:10:13;;;;;;;10.37;5.17;;;;;;;1.28;74.96;102933.19;5028124;28;20036;-77
2023/01/28 07:12:38;;;;;;;10.60;6.17;;;;;;;1.26;75.10;102930.53;5027151;28;20039;-77
2023/01/28 07:15:04;;;;;;;9.57;5.63;;;;;;;1.24;75.03;102932.13;5028126;28;20490;-77
2023/01/28 07:17:29;;;;;;;10.00;5.70;;;;;;;1.22;74.36;102933.75;5022810;28;20079;-77
2023/01/28 07:19:55;;;;;;;9.93;5.73;;;;;;;1.23;74.48;102947.47;5021320;28;20033;-77
2023/01/28 07:22:20;;;;;;;9.83;5.37;;;;;;;1.23;75.13;102938.06;5018040;28;20036;-77
2023/01/28 07:24:45;;;;;;;9.73;5.57;;;;;;;1.22;74.82;102944.00;5024927;28;20104;-77
2023/01/28 07:27:10;;;;;;;10.23;6.00;;;;;;;1.21;74.80;102947.38;5015802;28;20030;-77
2023/01/28 07:29:36;;;;;;;9.27;5.23;;;;;;;1.24;74.98;102957.78;5021666;28;20021;-77
2023/01/28 07:32:03;;;;;;;11.07;6.00;;;;;;;1.22;74.17;102959.38;5018851;28;20534;-77
2023/01/28 07:34:29;;;;;;;10.07;5.67;;;;;;;1.23;74.34;102948.34;5028284;28;20072;-77
2023/01/28 07:36:54;;;;;;;9.80;5.70;;;;;;;1.24;74.45;102957.78;5025432;28;20053;-77
2023/01/28 07:39:19;;;;;;;10.23;5.93;;;;;;;1.23;74.60;102961.16;5020622;28;20053;-77
2023/01/28 07:41:44;;;;;;;10.30;6.00;;;;;;;1.21;74.38;102968.78;5022861;28;20056;-77
2023/01/28 07:44:10;;;;;;;9.90;5.60;;;;;;;1.17;74.04;102969.44;5024241;28;20054;-77
2023/01/28 07:46:36;;;;;;;10.53;5.17;;;;;;;1.18;73.85;102962.63;5023423;28;20033;-77
2023/01/28 07:49:01;;;;;;;8.70;5.03;;;;;;;1.20;73.91;102973.81;5016731;28;20380;-78
2023/01/28 07:51:26;;;;;;;11.13;5.97;;;;;;;1.18;73.87;102968.63;5017353;28;20022;-78
2023/01/28 07:53:51;;;;;;;9.83;5.70;;;;;;;1.19;73.35;102974.66;5020431;28;20377;-78
2023/01/28 07:56:17;;;;;;;10.00;5.43;;;;;;;1.17;73.78;102968.56;5017679;28;20040;-77
2023/01/28 07:58:42;;;;;;;10.00;5.87;;;;;;;1.15;74.19;102972.75;5025503;28;20037;-78
2023/01/28 08:01:07;;;;;;;11.03;6.13;;;;;;;1.14;73.68;102978.69;5021369;28;20173;-77
2023/01/28 08:03:33;;;;;;;10.13;5.67;;;;;;;1.12;73.85;102982.84;5029962;28;20033;-77
2023/01/28 08:05:58;;;;;;;9.17;5.33;;;;;;;1.12;73.87;102982.84;5025771;28;20038;-77
2023/01/28 08:08:26;;;;;;;10.03;5.63;;;;;;;1.12;73.66;102967.47;5022233;28;20033;-78
2023/01/28 08:10:52;;;;;;;10.07;5.53;;;;;;;1.15;73.38;102975.31;5022575;28;20318;-77
2023/01/28 08:13:18;;;;;;;10.50;6.03;;;;;;;1.16;73.65;102982.19;5021412;28;20683;-77
2023/01/28 08:15:44;;;;;;;10.83;6.00;;;;;;;1.18;73.75;102988.28;5018850;28;20041;-77
2023/01/28 08:18:14;;;;;;;10.00;5.67;;;;;;;1.16;73.16;102995.00;5024711;28;20052;-77
2023/01/28 08:20:41;;;;;;;10.47;5.63;;;;;;;1.18;73.47;102998.53;5024990;28;20032;-77
2023/01/28 08:23:13;;;;;;;10.57;5.63;;;;;;;1.16;73.45;103001.00;5024373;28;20068;-77
2023/01/28 08:25:39;;;;;;;10.63;6.00;;;;;;;1.18;73.13;103003.66;5021587;28;20037;-78
2023/01/28 08:28:05;;;;;;;9.13;5.17;;;;;;;1.20;73.85;103013.19;5028107;28;20021;-77
2023/01/28 08:30:31;;;;;;;9.87;5.47;;;;;;;1.25;74.09;103008.25;5027618;28;21877;-77
2023/01/28 08:32:57;;;;;;;10.13;5.87;;;;;;;1.29;73.84;103011.84;5026925;28;20468;-77
2023/01/28 08:35:24;;;;;;;11.23;6.30;;;;;;;1.32;73.11;103017.13;5025367;28;20424;-78
2023/01/28 08:37:49;;;;;;;10.50;6.00;;;;;;;1.34;73.64;103025.78;5022529;28;20160;-77
2023/01/28 08:40:15;;;;;;;10.87;5.90;;;;;;;1.35;73.61;103023.31;5026880;28;20100;-77
2023/01/28 08:42:46;;;;;;;10.17;5.23;;;;;;;1.35;73.66;103017.28;5030950;28;20029;-78
2023/01/28 08:45:11;;;;;;;10.40;5.63;;;;;;;1.33;73.30;103019.78;5023602;28;20029;-77
2023/01/28 08:47:49;;;;;;;10.27;5.93;;;;;;;1.35;73.93;103018.16;5029317;28;20306;-77
2023/01/28 08:50:16;;;;;;;10.90;5.80;;;;;;;1.36;73.61;103027.63;5018698;28;20049;-77
2023/01/28 08:52:43;;;;;;;9.13;4.90;;;;;;;1.39;73.19;103031.13;5021451;28;20519;-77
2023/01/28 08:55:09;;;;;;;10.33;5.53;;;;;;;1.41;73.50;103029.50;5023831;28;20028;-77
2023/01/28 08:57:34;;;;;;;9.47;5.47;;;;;;;1.42;73.09;103029.59;5020401;28;20022;-77
2023/01/28 08:59:59;;;;;;;9.63;5.40;;;;;;;1.46;73.23;103035.75;5012125;28;20444;-77
2023/01/28 09:02:25;;;;;;;10.83;5.70;;;;;;;1.48;73.47;103029.00;5012790;28;20034;-77
2023/01/28 09:04:50;;;;;;;9.77;5.63;;;;;;;1.48;73.09;103029.88;5021137;28;20029;-77
2023/01/28 09:07:15;;;;;;;11.40;6.27;;;;;;;1.48;72.62;103029.88;5024840;28;20025;-77
2023/01/28 09:09:40;;;;;;;11.13;6.20;;;;;;;1.47;72.83;103040.94;5024855;28;20029;-77
2023/01/28 09:12:07;;;;;;;11.07;5.77;;;;;;;1.49;72.69;103051.28;5021984;28;20029;-77
2023/01/28 09:14:32;;;;;;;11.23;6.20;;;;;;;1.49;72.60;103036.75;5026457;28;20496;-77
2023/01/28 09:16:57;;;;;;;10.10;5.70;;;;;;;1.51;72.92;103049.69;5023108;28;20064;-77
2023/01/28 09:19:23;;;;;;;11.23;5.90;;;;;;;1.53;73.04;103048.06;5015445;28;20022;-77
2023/01/28 09:21:48;;;;;;;11.00;5.53;;;;;;;1.53;72.80;103055.75;5027429;28;20029;-77
2023/01/28 09:24:13;;;;;;;10.97;6.00;;;;;;;1.51;73.13;103060.81;5013337;28;20049;-77
2023/01/28 09:26:39;;;;;;;10.37;5.80;;;;;;;1.50;72.99;103066.75;5015947;28;20025;-77
2023/01/28 09:29:04;;;;;;;11.07;6.17;;;;;;;1.48;72.92;103062.34;5030937;28;20029;-77
2023/01/28 09:31:29;;;;;;;10.33;5.67;;;;;;;1.46;73.58;103058.84;5029237;28;20033;-77
2023/01/28 09:33:56;;;;;;;10.67;5.57;;;;;;;1.47;73.37;103058.03;5015093;28;20068;-77
2023/01/28 09:36:22;;;;;;;10.57;5.90;;;;;;;1.51;73.14;103059.94;5012719;28;20061;-77
2023/01/28 09:38:47;;;;;;;10.80;6.00;;;;;;;1.53;73.34;103050.63;5023447;28;20057;-78
2023/01/28 09:41:48;;;;;;;10.93;5.97;;;;;;;1.57;73.50;103060.22;5018581;28;20523;-77
2023/01/28 09:44:52;;;;;;;10.15;5.60;;;;;;;1.58;73.86;103072.22;5021156;28;20033;-76
2023/01/28 09:47:27;;;;;;;9.60;5.27;;;;;;;1.55;73.70;103059.25;5022242;28;20029;-77
2023/01/28 09:49:55;;;;;;;10.20;5.63;;;;;;;1.54;73.38;103064.31;5019719;28;20029;-77
2023/01/28 09:52:23;;;;;;;10.27;5.57;;;;;;;1.54;73.34;103065.19;5019696;28;20056;-77
2023/01/28 09:54:59;;;;;;;12.20;6.70;;;;;;;1.55;73.51;103076.34;5020690;28;20064;-77
2023/01/28 09:57:35;;;;;;;11.80;6.33;;;;;;;1.51;72.74;103085.59;5021177;28;20168;-77
2023/01/28 10:00:01;;;;;;;11.53;6.53;;;;;;;1.49;71.94;103082.06;5021277;28;20148;-77
2023/01/28 10:02:48;;;;;;;10.43;5.93;;;;;;;1.51;73.11;103080.47;5018620;28;20173;-77
2023/01/28 10:05:45;;;;;;;10.30;5.97;;;;;;;1.48;72.88;103086.31;5020494;28;20029;-77
2023/01/28 10:08:33;;;;;;;11.53;5.90;;;;;;;1.50;73.29;103092.41;5019871;28;20108;-77
2023/01/28 10:11:26;;;;;;;12.60;6.60;;;;;;;1.41;72.92;103094.53;5021682;28;20090;-76
2023/01/28 10:14:12;;;;;;;13.30;7.13;;;;;;;1.35;73.06;103100.25;5019581;28;20558;-77
2023/01/28 10:16:45;;;;;;;12.33;6.63;;;;;;;1.36;72.67;103095.97;5021884;28;20090;-77
2023/01/28 10:19:26;;;;;;;11.47;6.00;;;;;;;1.40;74.37;103094.44;5020250;28;20289;-77
2023/01/28 10:22:04;;;;;;;12.77;6.50;;;;;;;1.43;73.89;103099.72;5034685;28;20480;-77
2023/01/28 10:24:34;;;;;;;13.30;7.03;;;;;;;1.42;73.38;103100.53;5019332;28;20486;-77
2023/01/28 10:27:02;;;;;;;12.60;6.97;;;;;;;1.38;72.66;103104.63;5018674;28;20044;-78
2023/01/28 10:29:33;;;;;;;12.63;6.70;;;;;;;1.35;72.96;103102.81;5014949;28;20025;-77
2023/01/28 10:32:25;;;;;;;12.80;6.95;;;;;;;1.39;73.20;103084.97;5019380;28;20396;-77
2023/01/28 10:34:51;;;;;;;11.50;6.63;;;;;;;1.40;73.26;103086.75;5017704;28;20507;-77
2023/01/28 10:37:17;;;;;;;11.40;6.23;;;;;;;1.39;73.29;103087.53;5018132;28;20041;-77
2023/01/28 10:39:43;;;;;;;12.23;6.20;;;;;;;1.36;73.07;103086.63;5020652;28;20042;-77
2023/01/28 10:42:24;;;;;;;11.23;6.63;;;;;;;1.39;72.60;103093.56;5017972;28;20135;-77
2023/01/28 10:44:50;;;;;;;11.70;6.53;;;;;;;1.43;72.71;103092.91;5018600;28;20029;-77
2023/01/28 10:47:30;;;;;;;10.97;6.30;;;;;;;1.49;73.24;103097.47;5018787;28;20029;-77
2023/01/28 10:50:00;;;;;;;11.20;6.17;;;;;;;1.46;72.88;103089.59;5017463;28;20028;-77
2023/01/28 10:52:26;;;;;;;11.00;6.03;;;;;;;1.48;72.83;103080.31;5019627;28;20053;-77
2023/01/28 10:55:03;;;;;;;11.40;6.50;;;;;;;1.46;72.91;103084.47;5020307;28;20029;-77
2023/01/28 10:57:28;;;;;;;11.70;6.63;;;;;;;1.48;72.68;103093.13;5018106;28;20041;-77
2023/01/28 10:59:54;;;;;;;10.63;5.80;;;;;;;1.49;72.88;103092.34;5019044;28;20029;-78
2023/01/28 11:02:25;;;;;;;11.77;6.80;;;;;;;1.50;72.06;103081.25;5023216;28;20403;-77
2023/01/28 11:05:25;;;;;;;11.55;6.65;;;;;;;1.45;72.95;103086.16;5037303;28;20037;-77
2023/01/28 11:08:05;;;;;;;12.87;6.40;;;;;;;1.45;72.80;103080.16;4990799;28;20503;-76
2023/01/28 11:10:33;;;;;;;10.30;5.80;;;;;;;1.43;72.54;103086.91;5023652;28;20032;-77
2023/01/28 11:13:01;;;;;;;10.23;5.80;;;;;;;1.41;71.62;103093.63;5020676;28;21375;-77
2023/01/28 11:15:28;;;;;;;10.50;6.20;;;;;;;1.38;71.69;103089.25;5023872;28;20061;-77
2023/01/28 11:17:57;;;;;;;9.70;5.97;;;;;;;1.40;72.61;103071.34;5022873;28;20061;-77
2023/01/28 11:20:26;;;;;;;9.20;5.30;;;;;;;1.43;72.54;103062.13;5023778;28;20021;-78
2023/01/28 11:22:53;;;;;;;9.00;5.47;;;;;;;1.46;72.41;103066.53;5021778;28;20102;-77
2023/01/28 11:25:32;;;;;;;8.53;5.03;;;;;;;1.53;72.49;103063.47;5024651;28;20033;-77
2023/01/28 11:27:59;;;;;;;9.43;5.33;;;;;;;1.65;72.92;103052.88;5023639;28;20029;-77
2023/01/28 11:30:35;;;;;;;9.50;5.53;;;;;;;1.72;72.22;103049.81;5018531;28;20029;-76
2023/01/28 11:33:30;;;;;;;8.20;4.97;;;;;;;1.86;72.42;103042.75;5021643;28;20033;-76
2023/01/28 11:36:03;;;;;;;8.00;4.77;;;;;;;1.97;71.28;103044.13;5023842;28;20124;-83
2023/01/28 11:38:29;;;;;;;8.60;4.70;;;;;;;2.08;71.03;103039.47;5025005;28;20029;-77
2023/01/28 11:40:56;;;;;;;8.63;5.30;;;;;;;2.14;70.87;103033.72;5023734;28;20037;-77
2023/01/28 11:43:28;;;;;;;8.07;4.87;;;;;;;2.19;71.26;103034.81;5025458;28;20044;-77
2023/01/28 11:46:01;;;;;;;7.78;5.00;;;;;;;2.22;70.82;103027.22;5022847;28;20079;-77
2023/01/28 11:48:45;;;;;;;8.07;4.70;;;;;;;2.26;71.71;103018.84;5024414;28;20703;-77
2023/01/28 11:51:35;;;;;;;6.97;4.50;;;;;;;2.30;71.25;103017.31;5020187;28;20035;-77
2023/01/28 11:54:20;;;;;;;6.80;4.03;;;;;;;2.36;70.75;103004.72;5022740;28;20053;-77
2023/01/28 11:56:55;;;;;;;7.47;4.30;;;;;;;2.45;70.14;102991.41;5004381;28;20037;-78
2023/01/28 12:00:01;;;;;;;6.30;3.70;;;;;;;2.57;70.49;102978.19;5024050;28;20080;-78
2023/01/28 12:02:35;;;;;;;6.97;4.10;;;;;;;2.66;69.36;102972.56;5006929;28;20140;-77
2023/01/28 12:05:25;;;;;;;7.53;4.70;;;;;;;2.75;70.21;102962.66;5025615;28;20037;-77